Time;durP1;ratioP1;P1;durP2;ratioP2;P2;SDS_P1;SDS_P2;PMS_P1;PMS_P2;Temp;Humidity;BMP_temperature;BMP_pressure;BME280_temperature;BME280_humidity;BME280_pressure;Samples;Min_cycle;Max_cycle;Signal;HPM_P1;HPM_P2
2023/09/13 00:00:29;;;;;;;6.23;5.47;;;21.00;90.80;;;;;;5080675;28;20690;-78
2023/09/13 00:02:57;;;;;;;6.47;5.33;;;21.00;90.60;;;;;;5082775;28;20624;-77
2023/09/13 00:05:24;;;;;;;5.87;5.37;;;21.00;90.70;;;;;;5082067;28;20970;-78
2023/09/13 00:07:51;;;;;;;5.60;5.00;;;21.00;91.10;;;;;;5083444;28;20757;-77
2023/09/13 00:10:18;;;;;;;5.07;4.60;;;21.00;91.10;;;;;;5082335;28;20646;-78
2023/09/13 00:12:45;;;;;;;6.33;4.53;;;20.90;91.60;;;;;;5082417;28;21198;-78
2023/09/13 00:15:12;;;;;;;5.87;4.93;;;20.90;91.90;;;;;;5080788;28;20659;-77
2023/09/13 00:17:39;;;;;;;7.93;6.00;;;20.90;93.70;;;;;;5082354;28;20713;-78
2023/09/13 00:20:09;;;;;;;7.70;5.27;;;20.90;94.10;;;;;;5081714;28;20643;-77
2023/09/13 00:22:36;;;;;;;6.67;5.63;;;20.80;95.60;;;;;;5082749;28;20635;-77
2023/09/13 00:25:03;;;;;;;11.93;5.27;;;20.60;96.30;;;;;;5081559;28;20643;-77
2023/09/13 00:27:30;;;;;;;6.13;4.60;;;20.50;97.40;;;;;;5082517;28;20733;-78
2023/09/13 00:29:57;;;;;;;8.30;5.33;;;20.40;97.30;;;;;;5082053;28;20630;-78
2023/09/13 00:32:23;;;;;;;15.97;6.27;;;20.30;99.30;;;;;;5082102;28;20638;-78
2023/09/13 00:34:50;;;;;;;6.97;6.27;;;20.30;99.90;;;;;;5082404;28;20660;-77
2023/09/13 00:37:20;;;;;;;11.73;5.50;;;20.20;99.90;;;;;;5082180;28;21209;-77
2023/09/13 00:39:47;;;;;;;5.03;4.30;;;20.10;99.90;;;;;;5082181;28;21152;-77
2023/09/13 00:42:14;;;;;;;5.83;4.53;;;20.10;99.90;;;;;;5081159;28;20642;-77
2023/09/13 00:44:40;;;;;;;5.77;5.27;;;20.00;99.90;;;;;;5082410;28;20753;-77
2023/09/13 00:47:08;;;;;;;5.57;4.70;;;20.00;99.90;;;;;;5081799;28;21183;-77
2023/09/13 00:49:36;;;;;;;4.93;4.43;;;19.80;99.90;;;;;;5081899;28;20645;-77
2023/09/13 00:52:03;;;;;;;5.60;4.80;;;19.70;99.90;;;;;;5082779;28;20702;-77
2023/09/13 00:54:31;;;;;;;6.37;5.67;;;19.60;99.90;;;;;;5081769;28;21215;-77
2023/09/13 00:56:58;;;;;;;5.60;4.97;;;19.50;99.90;;;;;;5082200;28;20627;-77
2023/09/13 00:59:26;;;;;;;5.03;3.80;;;19.50;99.90;;;;;;5081688;28;21200;-78
2023/09/13 01:01:52;;;;;;;6.50;4.50;;;19.40;99.90;;;;;;5081863;28;20794;-77
2023/09/13 01:04:19;;;;;;;4.83;4.37;;;19.50;99.90;;;;;;5080577;28;20625;-76
2023/09/13 01:06:47;;;;;;;4.90;4.40;;;19.60;99.90;;;;;;5081113;28;21309;-78
2023/09/13 01:09:15;;;;;;;5.27;4.77;;;19.50;99.90;;;;;;5082358;28;20648;-77
2023/09/13 01:11:45;;;;;;;5.10;4.67;;;19.40;99.90;;;;;;5083894;28;20631;-77
2023/09/13 01:14:12;;;;;;;6.50;5.87;;;19.20;99.90;;;;;;5081492;28;20637;-77
2023/09/13 01:16:45;;;;;;;5.13;4.40;;;19.10;99.90;;;;;;5081513;28;21501;-78
2023/09/13 01:19:29;;;;;;;7.23;4.67;;;18.90;99.90;;;;;;5081149;28;20637;-77
2023/09/13 01:22:11;;;;;;;4.67;4.27;;;18.80;99.90;;;;;;5081890;28;21072;-77
2023/09/13 01:25:03;;;;;;;4.97;4.23;;;18.80;99.90;;;;;;5081901;28;20948;-77
2023/09/13 01:27:49;;;;;;;5.80;4.37;;;18.80;99.90;;;;;;5082390;28;20638;-78
2023/09/13 01:30:20;;;;;;;5.40;4.87;;;18.80;99.90;;;;;;5081853;28;20735;-77
2023/09/13 01:32:49;;;;;;;4.20;3.80;;;18.90;99.90;;;;;;5083893;28;20616;-78
2023/09/13 01:35:16;;;;;;;5.17;4.70;;;18.80;99.90;;;;;;5085847;28;20660;-77
2023/09/13 01:37:44;;;;;;;5.00;4.40;;;18.80;99.90;;;;;;5085989;28;20632;-77
2023/09/13 01:40:12;;;;;;;6.33;5.73;;;18.70;99.90;;;;;;5085997;28;21650;-77
2023/09/13 01:42:42;;;;;;;5.20;4.70;;;18.80;99.90;;;;;;5084972;28;20636;-78
2023/09/13 01:45:12;;;;;;;5.70;5.10;;;18.80;99.90;;;;;;5084336;28;20617;-77
2023/09/13 01:47:43;;;;;;;6.37;5.23;;;18.80;99.90;;;;;;5085076;28;20631;-77
2023/09/13 01:50:11;;;;;;;7.13;4.97;;;18.80;99.90;;;;;;5086293;28;21058;-77
2023/09/13 01:52:38;;;;;;;5.27;4.77;;;18.70;99.90;;;;;;5085468;28;20714;-77
2023/09/13 01:55:06;;;;;;;5.63;5.03;;;18.70;99.90;;;;;;5084579;28;20649;-77
2023/09/13 01:57:33;;;;;;;5.50;4.90;;;18.70;99.90;;;;;;5084727;28;21266;-77
2023/09/13 02:00:00;;;;;;;4.90;4.40;;;18.80;99.90;;;;;;5084748;28;20615;-77
2023/09/13 02:02:27;;;;;;;4.80;4.30;;;18.80;99.90;;;;;;5086248;28;20623;-77
2023/09/13 02:04:55;;;;;;;6.03;4.87;;;18.80;99.90;;;;;;5085213;28;20637;-77
2023/09/13 02:07:22;;;;;;;4.90;4.40;;;18.90;99.90;;;;;;5084756;28;20662;-77
2023/09/13 02:09:49;;;;;;;6.00;5.40;;;18.90;99.90;;;;;;5084798;28;20648;-77
2023/09/13 02:12:16;;;;;;;5.87;5.27;;;18.80;99.90;;;;;;5083897;28;20764;-77
2023/09/13 02:14:43;;;;;;;4.57;4.17;;;18.60;99.90;;;;;;5085441;28;20734;-78
2023/09/13 02:17:10;;;;;;;9.20;5.83;;;18.50;99.90;;;;;;5084895;28;21337;-77
2023/09/13 02:19:37;;;;;;;5.70;5.20;;;18.40;99.90;;;;;;5084819;28;20640;-77
2023/09/13 02:22:05;;;;;;;6.40;4.57;;;18.50;99.90;;;;;;5084366;28;20685;-77
2023/09/13 02:24:33;;;;;;;7.77;4.53;;;18.60;99.90;;;;;;5083913;28;20642;-78
2023/09/13 02:27:00;;;;;;;6.57;5.00;;;18.60;99.90;;;;;;5085086;28;20640;-77
2023/09/13 02:29:27;;;;;;;6.07;5.37;;;18.60;99.90;;;;;;5085279;28;20629;-78
2023/09/13 02:31:54;;;;;;;5.70;5.07;;;18.60;99.90;;;;;;5085599;28;21273;-78
2023/09/13 02:34:20;;;;;;;5.47;4.77;;;18.60;99.90;;;;;;5083425;28;20789;-77
2023/09/13 02:36:47;;;;;;;4.97;4.43;;;18.60;99.90;;;;;;5083602;28;20667;-77
2023/09/13 02:39:37;;;;;;;5.37;4.83;;;18.50;99.90;;;;;;5083677;28;21403;-77
2023/09/13 02:42:06;;;;;;;6.87;5.07;;;18.50;99.90;;;;;;5084375;28;20638;-77
2023/09/13 02:44:35;;;;;;;5.90;5.30;;;18.60;99.90;;;;;;5084620;28;20631;-78
2023/09/13 02:47:02;;;;;;;4.07;3.50;;;18.60;99.90;;;;;;5083884;28;20648;-77
2023/09/13 02:49:29;;;;;;;5.63;4.90;;;18.50;99.90;;;;;;5083906;28;20647;-77
2023/09/13 02:51:56;;;;;;;5.70;5.20;;;18.50;99.90;;;;;;5084430;28;22208;-77
2023/09/13 02:54:23;;;;;;;5.83;5.23;;;18.60;99.90;;;;;;5084223;28;20619;-77
2023/09/13 02:56:52;;;;;;;6.87;5.80;;;18.70;99.90;;;;;;5084519;28;20657;-77
2023/09/13 02:59:19;;;;;;;6.10;5.43;;;18.70;99.90;;;;;;5084041;28;20620;-77
2023/09/13 03:01:46;;;;;;;6.90;6.20;;;19.00;99.90;;;;;;5083556;28;20631;-78
2023/09/13 03:04:13;;;;;;;11.10;6.40;;;19.00;99.90;;;;;;5083836;28;20625;-77
2023/09/13 03:06:40;;;;;;;7.90;6.47;;;18.90;99.90;;;;;;5084396;28;20620;-77
2023/09/13 03:09:07;;;;;;;6.47;5.30;;;18.80;99.90;;;;;;5083598;28;20651;-77
2023/09/13 03:11:36;;;;;;;6.40;5.43;;;18.70;99.90;;;;;;5083841;28;20988;-77
2023/09/13 03:14:06;;;;;;;6.43;5.70;;;18.70;99.90;;;;;;5084316;28;20657;-77
2023/09/13 03:16:33;;;;;;;6.80;6.20;;;18.70;99.90;;;;;;5083849;28;20806;-77
2023/09/13 03:19:00;;;;;;;7.10;6.43;;;18.80;99.90;;;;;;5085226;28;20624;-77
2023/09/13 03:21:27;;;;;;;5.93;5.43;;;18.70;99.90;;;;;;5084328;28;20619;-77
2023/09/13 03:23:55;;;;;;;7.23;6.40;;;18.50;99.90;;;;;;5084208;28;20636;-77
2023/09/13 03:26:24;;;;;;;8.10;7.00;;;18.50;99.90;;;;;;5081877;28;20636;-77
2023/09/13 03:28:52;;;;;;;5.20;4.80;;;18.40;99.90;;;;;;5082781;28;20644;-77
2023/09/13 03:31:24;;;;;;;6.37;5.77;;;18.30;99.90;;;;;;5084060;28;20979;-77
2023/09/13 03:33:53;;;;;;;6.43;5.37;;;18.30;99.90;;;;;;5084245;28;20628;-77
2023/09/13 03:36:20;;;;;;;8.07;6.27;;;18.40;99.90;;;;;;5082321;28;20652;-77
2023/09/13 03:38:48;;;;;;;6.90;6.20;;;18.40;99.90;;;;;;5082849;28;21796;-77
2023/09/13 03:41:18;;;;;;;7.73;6.23;;;18.40;99.90;;;;;;5083638;28;20725;-77
2023/09/13 03:43:46;;;;;;;6.53;5.93;;;18.40;99.90;;;;;;5084411;28;20789;-77
2023/09/13 03:46:14;;;;;;;6.73;5.23;;;18.30;99.90;;;;;;5083213;28;20624;-77
2023/09/13 03:48:43;;;;;;;6.97;5.67;;;18.30;99.90;;;;;;5084391;28;21185;-78
2023/09/13 03:51:13;;;;;;;7.63;6.67;;;18.30;99.90;;;;;;5081249;28;20723;-77
2023/09/13 03:53:41;;;;;;;7.37;6.10;;;18.30;99.90;;;;;;5081902;28;20733;-78
2023/09/13 03:56:10;;;;;;;6.07;5.47;;;18.30;99.90;;;;;;5080481;28;20640;-77
2023/09/13 03:58:39;;;;;;;7.73;6.80;;;18.50;99.90;;;;;;5082527;28;20615;-77
2023/09/13 04:01:07;;;;;;;6.70;5.63;;;18.40;99.90;;;;;;5082599;28;20731;-77
2023/09/13 04:03:36;;;;;;;8.70;5.80;;;18.50;99.90;;;;;;5082340;28;21125;-77
2023/09/13 04:06:05;;;;;;;6.07;5.23;;;18.40;99.90;;;;;;5081408;28;20620;-77
2023/09/13 04:08:36;;;;;;;6.80;6.10;;;18.40;99.90;;;;;;5081347;28;20639;-77
2023/09/13 04:11:04;;;;;;;6.37;5.00;;;18.30;99.90;;;;;;5082526;28;20662;-77
2023/09/13 04:13:34;;;;;;;5.90;5.40;;;18.40;99.90;;;;;;5083698;28;20620;-77
2023/09/13 04:16:06;;;;;;;7.43;5.87;;;18.20;99.90;;;;;;5082046;28;20653;-77
2023/09/13 04:18:34;;;;;;;5.90;5.30;;;18.20;99.90;;;;;;5082810;28;20625;-78
2023/09/13 04:21:02;;;;;;;6.17;5.37;;;18.20;99.90;;;;;;5082231;28;20641;-77
2023/09/13 04:23:31;;;;;;;6.30;5.70;;;18.20;99.90;;;;;;5082197;28;20620;-77
2023/09/13 04:25:58;;;;;;;5.80;4.90;;;18.20;99.90;;;;;;5081994;28;20625;-78
2023/09/13 04:28:25;;;;;;;4.83;4.37;;;18.20;99.90;;;;;;5082168;28;20633;-78
2023/09/13 04:30:52;;;;;;;10.07;7.00;;;18.20;99.90;;;;;;5081443;28;20661;-78
2023/09/13 04:33:20;;;;;;;5.27;4.73;;;18.20;99.90;;;;;;5081429;28;21171;-78
2023/09/13 04:35:46;;;;;;;6.80;5.63;;;18.10;99.90;;;;;;5082890;28;20644;-78
2023/09/13 04:38:13;;;;;;;6.70;5.00;;;18.10;99.90;;;;;;5082563;28;20635;-77
2023/09/13 04:40:43;;;;;;;5.80;4.80;;;18.10;99.90;;;;;;5081048;28;20663;-78
2023/09/13 04:43:23;;;;;;;5.23;4.47;;;18.10;99.90;;;;;;5081504;28;20634;-78
2023/09/13 04:45:50;;;;;;;8.00;6.20;;;18.00;99.90;;;;;;5081117;28;20623;-77
2023/09/13 04:48:16;;;;;;;9.00;6.60;;;18.10;99.90;;;;;;5082369;28;21348;-78
2023/09/13 04:50:43;;;;;;;7.23;6.00;;;18.00;99.90;;;;;;5081940;28;20624;-78
2023/09/13 04:53:10;;;;;;;6.67;6.00;;;18.00;99.90;;;;;;5082837;28;20628;-77
2023/09/13 04:55:37;;;;;;;5.57;5.07;;;18.00;99.90;;;;;;5081472;28;20654;-78
2023/09/13 04:58:05;;;;;;;7.50;6.40;;;18.00;99.90;;;;;;5081742;28;21130;-78
2023/09/13 05:00:32;;;;;;;6.07;5.43;;;18.10;99.90;;;;;;5082305;28;20629;-78
2023/09/13 05:02:58;;;;;;;6.30;5.70;;;18.10;99.90;;;;;;5082148;28;21006;-77
2023/09/13 05:05:25;;;;;;;6.60;5.33;;;18.10;99.90;;;;;;5081876;28;20770;-77
2023/09/13 05:07:53;;;;;;;6.57;5.87;;;18.20;99.90;;;;;;5081250;28;20983;-78
2023/09/13 05:10:20;;;;;;;6.57;5.97;;;18.20;99.90;;;;;;5081487;28;20640;-78
2023/09/13 05:12:48;;;;;;;7.77;5.77;;;18.10;99.90;;;;;;5082790;28;20628;-76
2023/09/13 05:15:16;;;;;;;11.73;5.90;;;18.20;99.90;;;;;;5082093;28;20704;-74
2023/09/13 05:17:43;;;;;;;6.40;5.70;;;18.20;99.90;;;;;;5082266;28;20639;-77
2023/09/13 05:20:10;;;;;;;6.67;5.97;;;18.20;99.90;;;;;;5081778;28;20671;-77
2023/09/13 05:22:37;;;;;;;6.13;5.60;;;18.20;99.90;;;;;;5081523;28;20635;-77
2023/09/13 05:25:04;;;;;;;8.00;6.53;;;18.20;99.90;;;;;;5081176;28;21284;-77
2023/09/13 05:27:31;;;;;;;9.03;6.20;;;18.20;99.90;;;;;;5081913;28;20631;-78
2023/09/13 05:29:57;;;;;;;6.33;5.70;;;18.20;99.90;;;;;;5082289;28;20633;-78
2023/09/13 05:32:25;;;;;;;6.73;6.10;;;18.20;99.90;;;;;;5082126;28;21015;-77
2023/09/13 05:34:52;;;;;;;6.90;6.20;;;18.30;99.90;;;;;;5081726;28;20620;-79
2023/09/13 05:37:19;;;;;;;5.63;5.13;;;18.30;99.90;;;;;;5081241;28;20746;-78
2023/09/13 05:39:46;;;;;;;6.80;5.50;;;18.30;99.90;;;;;;5081610;28;20625;-75
2023/09/13 05:42:13;;;;;;;6.50;5.80;;;18.40;99.90;;;;;;5080320;28;20633;-76
2023/09/13 05:44:39;;;;;;;5.63;5.13;;;18.40;99.90;;;;;;5078682;28;20608;-76
2023/09/13 05:47:06;;;;;;;6.20;5.20;;;18.40;99.90;;;;;;5077934;28;20629;-75
2023/09/13 05:49:34;;;;;;;5.00;4.50;;;18.40;99.90;;;;;;5077832;28;20632;-76
2023/09/13 05:52:02;;;;;;;5.60;5.10;;;18.40;99.90;;;;;;5078549;28;20629;-75
2023/09/13 05:54:28;;;;;;;5.40;4.60;;;18.50;99.90;;;;;;5079339;28;21070;-74
2023/09/13 05:56:56;;;;;;;5.33;4.77;;;18.50;99.90;;;;;;5078888;28;20742;-74
2023/09/13 05:59:23;;;;;;;5.37;4.67;;;18.50;99.90;;;;;;5079078;28;20734;-74
2023/09/13 06:01:50;;;;;;;5.57;4.17;;;18.50;99.90;;;;;;5078571;28;20628;-74
2023/09/13 06:04:16;;;;;;;5.40;4.50;;;18.50;99.90;;;;;;5079131;28;20613;-74
2023/09/13 06:06:44;;;;;;;4.83;4.40;;;18.50;99.90;;;;;;5079442;28;20684;-75
2023/09/13 06:09:11;;;;;;;5.23;4.17;;;18.40;99.90;;;;;;5078929;28;20656;-74
2023/09/13 06:11:38;;;;;;;4.93;4.30;;;18.30;99.90;;;;;;5079263;28;20631;-74
2023/09/13 06:14:07;;;;;;;5.60;5.10;;;18.40;99.90;;;;;;5078017;28;20747;-75
2023/09/13 06:16:34;;;;;;;5.20;4.73;;;18.30;99.90;;;;;;5078363;28;20234;-75
2023/09/13 06:19:01;;;;;;;4.20;3.80;;;18.30;99.90;;;;;;5083078;28;21040;-74
2023/09/13 06:21:27;;;;;;;4.00;3.70;;;18.30;99.90;;;;;;5082777;28;20626;-75
2023/09/13 06:23:56;;;;;;;4.07;3.70;;;18.40;99.90;;;;;;5083030;28;20631;-75
2023/09/13 06:26:22;;;;;;;5.27;4.03;;;18.30;99.90;;;;;;5080899;28;20624;-75
2023/09/13 06:28:49;;;;;;;5.50;4.90;;;18.30;99.90;;;;;;5082353;28;21263;-76
2023/09/13 06:31:16;;;;;;;5.50;4.33;;;18.40;99.90;;;;;;5075610;28;20652;-76
2023/09/13 06:33:45;;;;;;;3.87;3.47;;;18.40;99.90;;;;;;5083681;28;21114;-76
2023/09/13 06:36:12;;;;;;;6.57;3.67;;;18.30;99.90;;;;;;5082788;28;21260;-75
2023/09/13 06:38:39;;;;;;;4.60;4.20;;;18.30;99.90;;;;;;5084509;28;20636;-76
2023/09/13 06:41:07;;;;;;;4.50;3.57;;;18.40;99.90;;;;;;5082759;28;20635;-76
2023/09/13 06:43:36;;;;;;;4.80;4.10;;;18.50;99.90;;;;;;5085170;28;21215;-75
2023/09/13 06:46:03;;;;;;;5.33;4.83;;;18.60;99.90;;;;;;5083232;28;21013;-76
2023/09/13 06:48:30;;;;;;;3.93;3.53;;;18.50;99.90;;;;;;5084463;28;20631;-75
2023/09/13 06:50:57;;;;;;;4.73;4.30;;;18.60;99.90;;;;;;5083422;28;21440;-77
2023/09/13 06:53:23;;;;;;;5.17;4.40;;;18.60;99.90;;;;;;5083057;28;20629;-77
2023/09/13 06:55:51;;;;;;;5.37;4.87;;;18.70;99.90;;;;;;5081386;28;20638;-78
2023/09/13 06:58:19;;;;;;;7.50;5.57;;;18.80;99.90;;;;;;5085086;28;20628;-78
2023/09/13 07:00:46;;;;;;;5.87;5.10;;;18.80;99.90;;;;;;5078626;28;21072;-78
2023/09/13 07:03:13;;;;;;;4.70;4.30;;;18.90;99.90;;;;;;5081913;28;21132;-78
2023/09/13 07:05:41;;;;;;;5.93;4.13;;;18.80;99.90;;;;;;5082590;28;20612;-77
2023/09/13 07:08:09;;;;;;;7.27;4.80;;;18.80;99.90;;;;;;5082042;28;20621;-78
2023/09/13 07:10:38;;;;;;;4.80;4.40;;;18.90;99.90;;;;;;5082731;28;21244;-77
2023/09/13 07:13:05;;;;;;;4.80;4.30;;;18.90;99.90;;;;;;5083404;28;20627;-78
2023/09/13 07:15:34;;;;;;;4.10;3.70;;;18.90;99.90;;;;;;5083296;28;20631;-77
2023/09/13 07:18:00;;;;;;;4.23;3.83;;;18.80;99.90;;;;;;5081428;28;20659;-77
2023/09/13 07:20:27;;;;;;;3.90;3.60;;;18.80;99.90;;;;;;5081627;28;20626;-78
2023/09/13 07:22:55;;;;;;;4.93;4.10;;;18.80;99.90;;;;;;5082675;28;20632;-79
2023/09/13 07:25:21;;;;;;;4.80;4.40;;;18.90;99.90;;;;;;5081675;28;20634;-79
2023/09/13 07:27:48;;;;;;;5.10;4.17;;;18.90;99.90;;;;;;5082265;28;20622;-76
2023/09/13 07:30:15;;;;;;;5.27;4.77;;;18.90;99.90;;;;;;5082197;28;21711;-77
2023/09/13 07:32:44;;;;;;;4.73;4.30;;;19.00;99.90;;;;;;5082426;28;20632;-71
2023/09/13 07:35:11;;;;;;;3.57;3.17;;;18.90;99.90;;;;;;5077235;28;20648;-71
2023/09/13 07:37:38;;;;;;;8.40;4.20;;;19.00;99.90;;;;;;5081363;28;21119;-70
2023/09/13 07:40:08;;;;;;;4.30;3.90;;;18.90;99.90;;;;;;5080557;28;20639;-71
2023/09/13 07:42:36;;;;;;;6.73;4.40;;;18.90;99.90;;;;;;5081979;28;20631;-72
2023/09/13 07:45:04;;;;;;;5.13;4.23;;;18.90;99.90;;;;;;5080394;28;21003;-72
2023/09/13 07:47:30;;;;;;;4.33;3.93;;;19.00;99.90;;;;;;5068668;28;20632;-72
2023/09/13 07:50:00;;;;;;;4.97;3.90;;;19.00;99.90;;;;;;5074016;28;20981;-73
2023/09/13 07:52:30;;;;;;;4.33;3.70;;;18.90;99.90;;;;;;5074177;28;21126;-73
2023/09/13 07:55:00;;;;;;;3.77;3.47;;;18.90;99.90;;;;;;5080038;28;20616;-73
2023/09/13 07:57:27;;;;;;;5.30;4.80;;;18.80;99.90;;;;;;5079558;28;21208;-72
2023/09/13 07:59:56;;;;;;;4.70;4.10;;;19.00;99.90;;;;;;5079291;28;21321;-73
2023/09/13 08:02:23;;;;;;;7.00;4.60;;;19.00;99.90;;;;;;5079033;28;20978;-72
2023/09/13 08:04:51;;;;;;;5.67;4.87;;;18.90;99.90;;;;;;5081111;28;20623;-72
2023/09/13 08:07:19;;;;;;;5.50;4.67;;;19.00;99.90;;;;;;5080171;28;21005;-73
2023/09/13 08:09:46;;;;;;;5.40;4.83;;;19.10;99.90;;;;;;5078123;28;20987;-73
2023/09/13 08:12:12;;;;;;;4.73;3.83;;;19.20;99.90;;;;;;5077894;28;20802;-72
2023/09/13 08:14:39;;;;;;;5.80;4.70;;;19.30;99.90;;;;;;5078709;28;20632;-73
2023/09/13 08:17:06;;;;;;;4.50;4.10;;;19.20;99.90;;;;;;5080030;28;20660;-73
2023/09/13 08:19:33;;;;;;;4.53;4.00;;;19.20;99.90;;;;;;5082377;28;21408;-73
2023/09/13 08:22:00;;;;;;;5.30;3.93;;;19.30;99.90;;;;;;5081808;28;21237;-74
2023/09/13 08:24:28;;;;;;;4.57;4.07;;;19.40;99.90;;;;;;5079366;28;20636;-73
2023/09/13 08:26:54;;;;;;;5.17;4.67;;;19.70;99.90;;;;;;5080586;28;20618;-73
2023/09/13 08:29:21;;;;;;;4.00;3.60;;;19.70;99.90;;;;;;5079537;28;20830;-73
2023/09/13 08:31:48;;;;;;;4.33;3.77;;;19.70;99.90;;;;;;5081742;28;20641;-72
2023/09/13 08:34:15;;;;;;;4.80;4.40;;;19.50;99.90;;;;;;5082053;28;20630;-72
2023/09/13 08:36:41;;;;;;;4.00;3.70;;;19.50;99.90;;;;;;5080859;28;20653;-73
2023/09/13 08:39:08;;;;;;;4.30;3.87;;;19.60;99.90;;;;;;5082017;28;20626;-72
2023/09/13 08:41:37;;;;;;;3.90;3.60;;;19.50;99.90;;;;;;5081125;28;20633;-72
2023/09/13 08:44:06;;;;;;;4.20;3.60;;;19.50;99.90;;;;;;5080400;28;20654;-72
2023/09/13 08:46:33;;;;;;;4.50;3.77;;;19.60;99.90;;;;;;5081444;28;21088;-72
2023/09/13 08:49:01;;;;;;;3.83;3.40;;;19.70;99.90;;;;;;5081841;28;20983;-72
2023/09/13 08:51:29;;;;;;;5.77;3.80;;;19.60;99.90;;;;;;5080982;28;20631;-72
2023/09/13 08:53:56;;;;;;;5.90;3.70;;;19.50;99.90;;;;;;5081842;28;21234;-72
2023/09/13 08:56:23;;;;;;;3.67;3.37;;;19.50;99.90;;;;;;5080374;28;21053;-72
2023/09/13 08:58:52;;;;;;;4.63;3.50;;;19.60;99.90;;;;;;5081055;28;20661;-72
2023/09/13 09:01:20;;;;;;;4.90;4.30;;;19.60;99.90;;;;;;5079875;28;21296;-72
2023/09/13 09:03:49;;;;;;;4.00;3.60;;;19.60;99.90;;;;;;5079371;28;20624;-73
2023/09/13 09:06:17;;;;;;;3.60;3.30;;;19.60;99.90;;;;;;5079272;28;20641;-73
2023/09/13 09:08:48;;;;;;;5.00;4.50;;;19.40;99.90;;;;;;5082801;28;20643;-72
2023/09/13 09:11:17;;;;;;;4.13;3.70;;;19.30;99.90;;;;;;5081286;28;21382;-73
2023/09/13 09:13:46;;;;;;;5.20;3.90;;;19.30;99.90;;;;;;5081186;28;20629;-72
2023/09/13 09:16:17;;;;;;;5.00;3.30;;;19.30;99.90;;;;;;5079329;28;20633;-72
2023/09/13 09:18:45;;;;;;;5.97;5.10;;;19.30;99.90;;;;;;5082016;28;21038;-72
2023/09/13 09:21:13;;;;;;;4.03;3.60;;;19.20;99.90;;;;;;5082660;28;20763;-72
2023/09/13 09:23:41;;;;;;;2.90;2.70;;;19.10;99.90;;;;;;5081403;28;20635;-72
2023/09/13 09:26:10;;;;;;;4.07;3.20;;;19.00;99.90;;;;;;5080529;28;20630;-73
2023/09/13 09:28:36;;;;;;;3.77;3.47;;;19.10;99.90;;;;;;5080749;28;20660;-73
2023/09/13 09:31:03;;;;;;;3.77;3.40;;;19.10;99.90;;;;;;5081092;28;20629;-73
2023/09/13 09:33:33;;;;;;;4.00;3.57;;;19.10;99.90;;;;;;5080279;28;20632;-73
2023/09/13 09:36:03;;;;;;;3.93;3.50;;;19.30;99.90;;;;;;5079942;28;20777;-73
2023/09/13 09:38:31;;;;;;;3.03;2.77;;;19.30;99.90;;;;;;5080964;28;20669;-73
2023/09/13 09:40:59;;;;;;;3.70;3.40;;;19.30;99.90;;;;;;5078920;28;20627;-75
2023/09/13 09:43:26;;;;;;;3.90;2.90;;;19.20;99.90;;;;;;5080305;28;20631;-73
2023/09/13 09:45:53;;;;;;;3.43;3.07;;;19.10;99.90;;;;;;5077978;28;20633;-73
2023/09/13 09:48:20;;;;;;;2.97;2.73;;;19.10;99.90;;;;;;5080379;28;20650;-73
2023/09/13 09:50:51;;;;;;;4.27;2.60;;;19.20;99.90;;;;;;5080064;28;21154;-73
2023/09/13 09:53:20;;;;;;;5.53;3.20;;;19.20;99.90;;;;;;5083680;28;20728;-73
2023/09/13 09:55:47;;;;;;;4.00;3.70;;;19.20;99.90;;;;;;5082730;28;20629;-73
2023/09/13 09:58:15;;;;;;;5.50;2.70;;;19.20;99.90;;;;;;5082825;28;20662;-73
2023/09/13 10:00:50;;;;;;;3.23;2.93;;;19.30;99.90;;;;;;5083154;28;20649;-73
2023/09/13 10:03:18;;;;;;;3.67;3.37;;;19.20;99.90;;;;;;5083342;28;20624;-72
2023/09/13 10:05:54;;;;;;;2.70;2.50;;;19.10;99.90;;;;;;5082422;28;20631;-73
2023/09/13 10:08:35;;;;;;;4.60;3.13;;;19.00;99.90;;;;;;5082556;28;20649;-73
2023/09/13 10:11:03;;;;;;;2.50;1.93;;;19.00;99.90;;;;;;5084166;28;21171;-73
2023/09/13 10:13:31;;;;;;;2.93;2.33;;;19.00;99.90;;;;;;5085755;28;20650;-73
2023/09/13 10:15:58;;;;;;;3.37;2.23;;;19.00;99.90;;;;;;5083518;28;20653;-74
2023/09/13 10:18:27;;;;;;;3.50;2.30;;;19.00;99.90;;;;;;5083779;28;20658;-73
2023/09/13 10:20:58;;;;;;;4.30;3.00;;;18.90;99.90;;;;;;5083242;28;20627;-73
2023/09/13 10:23:35;;;;;;;3.00;2.70;;;19.00;99.90;;;;;;5083029;28;20636;-73
2023/09/13 10:26:03;;;;;;;2.70;2.43;;;19.10;99.90;;;;;;5081737;28;20617;-73
2023/09/13 10:28:35;;;;;;;3.10;2.90;;;19.20;99.90;;;;;;5082309;28;20630;-74
2023/09/13 10:31:03;;;;;;;4.27;2.60;;;19.20;99.90;;;;;;5081596;28;21470;-73
2023/09/13 10:33:32;;;;;;;2.90;2.50;;;19.40;99.90;;;;;;5082550;28;20637;-72
2023/09/13 10:36:03;;;;;;;3.50;2.80;;;19.40;99.90;;;;;;5081343;28;20639;-72
2023/09/13 10:38:38;;;;;;;3.93;3.43;;;19.50;99.90;;;;;;5084010;28;20651;-73
2023/09/13 10:41:08;;;;;;;2.73;2.50;;;19.60;99.90;;;;;;5083887;28;20881;-73
2023/09/13 10:43:37;;;;;;;3.13;2.77;;;19.60;99.90;;;;;;5081524;28;20631;-73
2023/09/13 10:46:04;;;;;;;3.50;2.70;;;19.70;99.90;;;;;;5079292;28;20635;-74
2023/09/13 10:48:31;;;;;;;2.90;2.50;;;19.60;99.90;;;;;;5077639;28;20632;-74
2023/09/13 10:51:02;;;;;;;4.67;3.13;;;19.70;99.90;;;;;;5080897;28;20636;-73
2023/09/13 10:53:30;;;;;;;4.07;3.67;;;19.60;99.90;;;;;;5081236;28;21015;-74
2023/09/13 10:55:57;;;;;;;3.30;3.00;;;19.70;99.90;;;;;;5083220;28;20665;-72
2023/09/13 10:58:25;;;;;;;3.60;3.20;;;19.80;99.90;;;;;;5083149;28;20658;-72
2023/09/13 11:00:54;;;;;;;4.07;2.87;;;19.90;99.90;;;;;;5082743;28;20633;-74
2023/09/13 11:03:22;;;;;;;3.50;3.07;;;20.00;99.90;;;;;;5083056;28;20632;-74
2023/09/13 11:05:51;;;;;;;3.80;3.20;;;20.00;99.90;;;;;;5083091;28;20633;-75
2023/09/13 11:08:30;;;;;;;3.00;2.70;;;19.90;99.90;;;;;;5083148;28;20624;-75
2023/09/13 11:11:07;;;;;;;3.23;2.87;;;20.20;99.90;;;;;;5083915;28;21313;-75
2023/09/13 11:13:34;;;;;;;3.30;2.90;;;20.40;99.90;;;;;;5084346;28;20646;-74
2023/09/13 11:16:03;;;;;;;3.33;3.03;;;20.60;99.90;;;;;;5079860;28;20636;-74
2023/09/13 11:18:30;;;;;;;3.33;3.03;;;20.80;99.90;;;;;;5084023;28;20751;-73
2023/09/13 11:20:57;;;;;;;3.97;2.87;;;20.90;99.90;;;;;;5082886;28;20629;-73
2023/09/13 11:23:24;;;;;;;3.47;3.00;;;20.80;99.90;;;;;;5082103;28;20625;-74
2023/09/13 11:25:54;;;;;;;3.37;2.70;;;20.70;99.90;;;;;;5081796;28;21720;-74
2023/09/13 11:28:32;;;;;;;3.73;3.20;;;20.50;99.90;;;;;;5081519;28;21196;-74
2023/09/13 11:31:01;;;;;;;2.20;1.90;;;20.50;99.90;;;;;;5083282;28;20640;-74
2023/09/13 11:33:28;;;;;;;3.70;3.17;;;20.60;99.90;;;;;;5082801;28;21265;-74
2023/09/13 11:35:57;;;;;;;5.43;2.70;;;20.80;99.90;;;;;;5082112;28;20630;-74
2023/09/13 11:38:24;;;;;;;4.50;3.20;;;20.80;99.90;;;;;;5081070;28;20675;-74
2023/09/13 11:41:03;;;;;;;2.80;2.47;;;20.70;99.90;;;;;;5082369;28;20626;-74
2023/09/13 11:43:30;;;;;;;3.20;2.40;;;20.60;99.90;;;;;;5083307;28;20671;-74
2023/09/13 11:45:59;;;;;;;3.13;2.83;;;20.80;99.90;;;;;;5081470;28;20640;-74
2023/09/13 11:48:29;;;;;;;3.03;2.80;;;21.00;99.90;;;;;;5082615;28;20616;-74
2023/09/13 11:50:57;;;;;;;4.60;3.00;;;21.40;99.90;;;;;;5082687;28;20624;-74
2023/09/13 11:53:27;;;;;;;2.20;2.00;;;21.60;99.90;;;;;;5082089;28;20629;-74
2023/09/13 11:55:56;;;;;;;3.20;2.90;;;21.70;99.90;;;;;;5080675;28;20639;-74
2023/09/13 11:58:34;;;;;;;4.27;3.00;;;21.80;99.90;;;;;;5083326;28;21014;-74
2023/09/13 12:01:03;;;;;;;4.20;2.80;;;21.70;99.90;;;;;;5081639;28;20739;-74
2023/09/13 12:03:30;;;;;;;3.10;2.67;;;21.70;99.90;;;;;;5082112;28;20636;-74
2023/09/13 12:05:57;;;;;;;2.80;2.50;;;21.90;99.90;;;;;;5081468;28;20634;-74
2023/09/13 12:08:27;;;;;;;3.33;3.00;;;22.10;99.90;;;;;;5082604;28;20706;-74
2023/09/13 12:10:56;;;;;;;4.00;3.50;;;22.10;99.90;;;;;;5082913;28;20730;-74
2023/09/13 12:13:40;;;;;;;4.30;3.00;;;21.80;99.90;;;;;;5082628;28;20631;-74
2023/09/13 12:16:07;;;;;;;4.20;2.67;;;21.60;99.90;;;;;;5080755;28;20638;-74
2023/09/13 12:18:36;;;;;;;5.60;2.97;;;21.80;99.90;;;;;;5081922;28;20660;-74
2023/09/13 12:21:03;;;;;;;3.17;2.90;;;21.70;99.80;;;;;;5082501;28;20636;-74
2023/09/13 12:23:34;;;;;;;3.17;2.90;;;21.70;99.90;;;;;;5082181;28;21181;-74
2023/09/13 12:26:03;;;;;;;3.27;2.80;;;22.00;99.90;;;;;;5082816;28;20721;-74
2023/09/13 12:28:32;;;;;;;3.33;2.60;;;22.50;99.80;;;;;;5081347;28;20642;-74
2023/09/13 12:30:59;;;;;;;3.40;3.10;;;22.90;99.50;;;;;;5082785;28;20664;-74
2023/09/13 12:33:26;;;;;;;2.70;2.50;;;23.00;99.40;;;;;;5081539;28;20635;-74
2023/09/13 12:35:54;;;;;;;3.27;2.77;;;23.10;99.00;;;;;;5081453;28;20642;-74
2023/09/13 12:38:21;;;;;;;2.97;2.33;;;22.90;98.70;;;;;;5082082;28;21771;-74
2023/09/13 12:40:52;;;;;;;2.70;2.30;;;22.80;99.00;;;;;;5081779;28;20632;-74
2023/09/13 12:43:21;;;;;;;3.10;2.80;;;22.30;97.80;;;;;;5080903;28;20641;-74
2023/09/13 12:45:48;;;;;;;2.60;2.40;;;22.30;98.30;;;;;;5080776;28;20673;-74
2023/09/13 12:48:15;;;;;;;4.43;2.50;;;22.50;98.60;;;;;;5081982;28;20616;-74
2023/09/13 12:50:43;;;;;;;1.93;1.83;;;22.40;98.30;;;;;;5082317;28;20641;-72